sensor_id;sensor_type;location;lat;lon;timestamp;temperature;humidity
15099;DHT22;33900;53.640;9.942;2022-07-15T00:02:26;17.90;75.40
15099;DHT22;33900;53.640;9.942;2022-07-15T00:04:51;17.90;75.30
15099;DHT22;33900;53.640;9.942;2022-07-15T00:07:17;17.90;75.30
15099;DHT22;33900;53.640;9.942;2022-07-15T00:09:43;17.90;75.60
15099;DHT22;33900;53.640;9.942;2022-07-15T00:12:27;17.90;75.40
15099;DHT22;33900;53.640;9.942;2022-07-15T00:14:53;17.90;75.80
15099;DHT22;33900;53.640;9.942;2022-07-15T00:17:18;17.90;76.40
15099;DHT22;33900;53.640;9.942;2022-07-15T00:19:44;17.90;76.80
15099;DHT22;33900;53.640;9.942;2022-07-15T00:22:10;17.90;77.00
15099;DHT22;33900;53.640;9.942;2022-07-15T00:24:36;17.90;77.40
15099;DHT22;33900;53.640;9.942;2022-07-15T00:27:02;17.80;77.80
15099;DHT22;33900;53.640;9.942;2022-07-15T00:29:28;17.90;77.80
15099;DHT22;33900;53.640;9.942;2022-07-15T00:31:54;17.80;78.20
15099;DHT22;33900;53.640;9.942;2022-07-15T00:34:20;17.90;78.10
15099;DHT22;33900;53.640;9.942;2022-07-15T00:36:47;17.80;79.00
15099;DHT22;33900;53.640;9.942;2022-07-15T00:39:13;17.80;78.40
15099;DHT22;33900;53.640;9.942;2022-07-15T00:41:39;17.80;78.60
15099;DHT22;33900;53.640;9.942;2022-07-15T00:44:05;17.80;78.60
15099;DHT22;33900;53.640;9.942;2022-07-15T00:46:31;17.70;78.60
15099;DHT22;33900;53.640;9.942;2022-07-15T00:49:00;17.80;78.80
15099;DHT22;33900;53.640;9.942;2022-07-15T00:51:27;17.70;78.70
15099;DHT22;33900;53.640;9.942;2022-07-15T00:53:53;17.70;78.90
15099;DHT22;33900;53.640;9.942;2022-07-15T00:56:20;17.70;79.30
15099;DHT22;33900;53.640;9.942;2022-07-15T00:58:47;17.70;79.10
15099;DHT22;33900;53.640;9.942;2022-07-15T01:01:14;17.70;79.10
15099;DHT22;33900;53.640;9.942;2022-07-15T01:03:43;17.70;79.10
15099;DHT22;33900;53.640;9.942;2022-07-15T01:06:11;17.70;79.20
15099;DHT22;33900;53.640;9.942;2022-07-15T01:08:36;17.70;79.20
15099;DHT22;33900;53.640;9.942;2022-07-15T01:11:02;17.80;79.30
15099;DHT22;33900;53.640;9.942;2022-07-15T01:13:28;17.80;79.60
15099;DHT22;33900;53.640;9.942;2022-07-15T01:15:53;17.80;79.70
15099;DHT22;33900;53.640;9.942;2022-07-15T01:18:20;17.80;79.80
15099;DHT22;33900;53.640;9.942;2022-07-15T01:20:46;17.80;79.70
15099;DHT22;33900;53.640;9.942;2022-07-15T01:23:13;17.80;79.60
15099;DHT22;33900;53.640;9.942;2022-07-15T01:25:44;17.80;79.60
15099;DHT22;33900;53.640;9.942;2022-07-15T01:28:11;17.80;79.40
15099;DHT22;33900;53.640;9.942;2022-07-15T01:30:38;17.80;79.30
15099;DHT22;33900;53.640;9.942;2022-07-15T01:33:05;17.80;79.20
15099;DHT22;33900;53.640;9.942;2022-07-15T01:35:31;17.80;79.10
15099;DHT22;33900;53.640;9.942;2022-07-15T01:37:57;17.80;79.20
15099;DHT22;33900;53.640;9.942;2022-07-15T01:40:23;17.80;79.10
15099;DHT22;33900;53.640;9.942;2022-07-15T01:42:49;17.80;78.80
15099;DHT22;33900;53.640;9.942;2022-07-15T01:45:15;17.80;78.90
15099;DHT22;33900;53.640;9.942;2022-07-15T01:47:47;17.80;79.10
15099;DHT22;33900;53.640;9.942;2022-07-15T01:50:20;17.80;79.00
15099;DHT22;33900;53.640;9.942;2022-07-15T01:52:57;17.80;79.10
15099;DHT22;33900;53.640;9.942;2022-07-15T01:55:27;17.70;78.80
15099;DHT22;33900;53.640;9.942;2022-07-15T01:57:54;17.70;78.70
15099;DHT22;33900;53.640;9.942;2022-07-15T02:00:20;17.80;78.90
15099;DHT22;33900;53.640;9.942;2022-07-15T02:02:47;17.80;78.80
15099;DHT22;33900;53.640;9.942;2022-07-15T02:05:16;17.80;78.90
15099;DHT22;33900;53.640;9.942;2022-07-15T02:07:42;17.80;79.40
15099;DHT22;33900;53.640;9.942;2022-07-15T02:10:11;17.80;79.30
15099;DHT22;33900;53.640;9.942;2022-07-15T02:12:43;17.70;80.20
15099;DHT22;33900;53.640;9.942;2022-07-15T02:15:08;17.70;80.40
15099;DHT22;33900;53.640;9.942;2022-07-15T02:17:44;17.60;80.60
15099;DHT22;33900;53.640;9.942;2022-07-15T02:20:10;17.60;80.90
15099;DHT22;33900;53.640;9.942;2022-07-15T02:22:35;17.50;81.10
15099;DHT22;33900;53.640;9.942;2022-07-15T02:25:03;17.50;81.20
15099;DHT22;33900;53.640;9.942;2022-07-15T02:27:30;17.50;81.40
15099;DHT22;33900;53.640;9.942;2022-07-15T02:29:55;17.40;81.70
15099;DHT22;33900;53.640;9.942;2022-07-15T02:32:22;17.40;81.70
15099;DHT22;33900;53.640;9.942;2022-07-15T02:34:47;17.40;81.80
15099;DHT22;33900;53.640;9.942;2022-07-15T02:37:13;17.40;82.10
15099;DHT22;33900;53.640;9.942;2022-07-15T02:39:38;17.40;82.60
15099;DHT22;33900;53.640;9.942;2022-07-15T02:42:04;17.40;82.60
15099;DHT22;33900;53.640;9.942;2022-07-15T02:44:32;17.40;82.60
15099;DHT22;33900;53.640;9.942;2022-07-15T02:46:58;17.40;82.80
15099;DHT22;33900;53.640;9.942;2022-07-15T02:49:28;17.40;82.80
15099;DHT22;33900;53.640;9.942;2022-07-15T02:51:54;17.40;82.90
15099;DHT22;33900;53.640;9.942;2022-07-15T02:54:22;17.40;82.90
15099;DHT22;33900;53.640;9.942;2022-07-15T02:56:48;17.40;82.90
15099;DHT22;33900;53.640;9.942;2022-07-15T02:59:14;17.40;83.00
15099;DHT22;33900;53.640;9.942;2022-07-15T03:01:40;17.40;83.00
15099;DHT22;33900;53.640;9.942;2022-07-15T03:04:05;17.40;82.90
15099;DHT22;33900;53.640;9.942;2022-07-15T03:06:31;17.40;83.00
15099;DHT22;33900;53.640;9.942;2022-07-15T03:08:59;17.40;83.00
15099;DHT22;33900;53.640;9.942;2022-07-15T03:11:24;17.40;83.00
15099;DHT22;33900;53.640;9.942;2022-07-15T03:13:50;17.40;83.20
15099;DHT22;33900;53.640;9.942;2022-07-15T03:16:16;17.40;83.30
15099;DHT22;33900;53.640;9.942;2022-07-15T03:18:45;17.40;83.30
15099;DHT22;33900;53.640;9.942;2022-07-15T03:21:11;17.40;83.20
15099;DHT22;33900;53.640;9.942;2022-07-15T03:23:37;17.40;83.20
15099;DHT22;33900;53.640;9.942;2022-07-15T03:26:03;17.40;83.20
15099;DHT22;33900;53.640;9.942;2022-07-15T03:28:28;17.40;83.10
15099;DHT22;33900;53.640;9.942;2022-07-15T03:30:55;17.50;84.10
15099;DHT22;33900;53.640;9.942;2022-07-15T03:33:21;17.50;83.30
15099;DHT22;33900;53.640;9.942;2022-07-15T03:35:48;17.50;83.10
15099;DHT22;33900;53.640;9.942;2022-07-15T03:38:13;17.50;83.10
15099;DHT22;33900;53.640;9.942;2022-07-15T03:40:39;17.50;82.70
15099;DHT22;33900;53.640;9.942;2022-07-15T03:43:05;17.50;82.50
15099;DHT22;33900;53.640;9.942;2022-07-15T03:45:33;17.50;82.30
15099;DHT22;33900;53.640;9.942;2022-07-15T03:47:58;17.50;82.20
15099;DHT22;33900;53.640;9.942;2022-07-15T03:50:24;17.50;81.70
15099;DHT22;33900;53.640;9.942;2022-07-15T03:52:50;17.50;81.20
15099;DHT22;33900;53.640;9.942;2022-07-15T03:55:15;17.40;80.80
15099;DHT22;33900;53.640;9.942;2022-07-15T03:57:41;17.40;80.80
15099;DHT22;33900;53.640;9.942;2022-07-15T04:00:07;17.40;80.50
15099;DHT22;33900;53.640;9.942;2022-07-15T04:02:42;17.40;79.70
15099;DHT22;33900;53.640;9.942;2022-07-15T04:05:07;17.40;79.80
15099;DHT22;33900;53.640;9.942;2022-07-15T04:07:33;17.40;79.70
15099;DHT22;33900;53.640;9.942;2022-07-15T04:09:59;17.50;79.50
15099;DHT22;33900;53.640;9.942;2022-07-15T04:12:24;17.50;78.60
15099;DHT22;33900;53.640;9.942;2022-07-15T04:14:50;17.50;78.00
15099;DHT22;33900;53.640;9.942;2022-07-15T04:17:16;17.50;77.60
15099;DHT22;33900;53.640;9.942;2022-07-15T04:19:42;17.50;77.60
15099;DHT22;33900;53.640;9.942;2022-07-15T04:22:08;17.50;76.80
15099;DHT22;33900;53.640;9.942;2022-07-15T04:24:41;17.50;77.00
15099;DHT22;33900;53.640;9.942;2022-07-15T04:27:11;17.60;77.10
15099;DHT22;33900;53.640;9.942;2022-07-15T04:29:36;17.60;77.20
15099;DHT22;33900;53.640;9.942;2022-07-15T04:32:03;17.60;76.70
15099;DHT22;33900;53.640;9.942;2022-07-15T04:34:33;17.70;76.50
15099;DHT22;33900;53.640;9.942;2022-07-15T04:36:59;17.70;76.60
15099;DHT22;33900;53.640;9.942;2022-07-15T04:39:27;17.70;76.60
15099;DHT22;33900;53.640;9.942;2022-07-15T04:41:57;17.80;77.00
15099;DHT22;33900;53.640;9.942;2022-07-15T04:44:28;17.80;76.00
15099;DHT22;33900;53.640;9.942;2022-07-15T04:46:55;17.80;76.40
15099;DHT22;33900;53.640;9.942;2022-07-15T04:49:37;17.80;76.40
15099;DHT22;33900;53.640;9.942;2022-07-15T04:52:22;17.80;76.00
15099;DHT22;33900;53.640;9.942;2022-07-15T04:54:50;17.80;76.10
15099;DHT22;33900;53.640;9.942;2022-07-15T04:57:15;17.80;76.20
15099;DHT22;33900;53.640;9.942;2022-07-15T04:59:48;17.80;76.40
15099;DHT22;33900;53.640;9.942;2022-07-15T05:02:16;17.80;76.70
15099;DHT22;33900;53.640;9.942;2022-07-15T05:04:45;17.80;76.80
15099;DHT22;33900;53.640;9.942;2022-07-15T05:07:13;17.80;77.20
15099;DHT22;33900;53.640;9.942;2022-07-15T05:09:40;17.80;77.40
15099;DHT22;33900;53.640;9.942;2022-07-15T05:12:06;17.80;77.90
15099;DHT22;33900;53.640;9.942;2022-07-15T05:14:42;17.80;78.20
15099;DHT22;33900;53.640;9.942;2022-07-15T05:17:08;17.80;78.30
15099;DHT22;33900;53.640;9.942;2022-07-15T05:19:34;17.80;78.80
15099;DHT22;33900;53.640;9.942;2022-07-15T05:22:00;17.80;78.90
15099;DHT22;33900;53.640;9.942;2022-07-15T05:24:28;17.80;79.20
15099;DHT22;33900;53.640;9.942;2022-07-15T05:26:54;17.80;79.40
15099;DHT22;33900;53.640;9.942;2022-07-15T05:29:20;17.80;79.60
15099;DHT22;33900;53.640;9.942;2022-07-15T05:31:51;17.80;80.10
15099;DHT22;33900;53.640;9.942;2022-07-15T05:34:26;17.80;80.30
15099;DHT22;33900;53.640;9.942;2022-07-15T05:36:55;17.80;80.20
15099;DHT22;33900;53.640;9.942;2022-07-15T05:39:23;17.80;79.80
15099;DHT22;33900;53.640;9.942;2022-07-15T05:41:54;17.80;79.90
15099;DHT22;33900;53.640;9.942;2022-07-15T05:44:23;17.70;80.10
15099;DHT22;33900;53.640;9.942;2022-07-15T05:46:52;17.70;80.30
15099;DHT22;33900;53.640;9.942;2022-07-15T05:49:21;17.70;80.50
15099;DHT22;33900;53.640;9.942;2022-07-15T05:51:48;17.70;80.90
15099;DHT22;33900;53.640;9.942;2022-07-15T05:54:14;17.70;79.90
15099;DHT22;33900;53.640;9.942;2022-07-15T05:56:40;17.70;79.10
15099;DHT22;33900;53.640;9.942;2022-07-15T05:59:10;17.60;79.00
15099;DHT22;33900;53.640;9.942;2022-07-15T06:01:36;17.70;79.10
15099;DHT22;33900;53.640;9.942;2022-07-15T06:04:01;17.70;79.30
15099;DHT22;33900;53.640;9.942;2022-07-15T06:06:27;17.80;79.40
15099;DHT22;33900;53.640;9.942;2022-07-15T06:08:53;17.80;79.10
15099;DHT22;33900;53.640;9.942;2022-07-15T06:11:18;17.90;79.20
15099;DHT22;33900;53.640;9.942;2022-07-15T06:13:45;17.90;78.60
15099;DHT22;33900;53.640;9.942;2022-07-15T06:16:10;17.90;78.20
15099;DHT22;33900;53.640;9.942;2022-07-15T06:18:36;18.00;77.90
15099;DHT22;33900;53.640;9.942;2022-07-15T06:21:12;18.00;77.90
15099;DHT22;33900;53.640;9.942;2022-07-15T06:23:37;18.00;77.70
15099;DHT22;33900;53.640;9.942;2022-07-15T06:26:03;18.10;77.80
15099;DHT22;33900;53.640;9.942;2022-07-15T06:28:28;18.10;78.10
15099;DHT22;33900;53.640;9.942;2022-07-15T06:30:54;18.20;78.20
15099;DHT22;33900;53.640;9.942;2022-07-15T06:33:20;18.20;78.40
15099;DHT22;33900;53.640;9.942;2022-07-15T06:35:47;18.20;78.10
15099;DHT22;33900;53.640;9.942;2022-07-15T06:38:23;18.30;77.90
15099;DHT22;33900;53.640;9.942;2022-07-15T06:40:53;18.30;77.80
15099;DHT22;33900;53.640;9.942;2022-07-15T06:43:18;18.30;77.80
15099;DHT22;33900;53.640;9.942;2022-07-15T06:46:07;18.30;77.60
15099;DHT22;33900;53.640;9.942;2022-07-15T06:48:33;18.40;77.70
15099;DHT22;33900;53.640;9.942;2022-07-15T06:50:59;18.40;77.90
15099;DHT22;33900;53.640;9.942;2022-07-15T06:53:25;18.50;78.00
15099;DHT22;33900;53.640;9.942;2022-07-15T06:55:51;18.50;78.70
15099;DHT22;33900;53.640;9.942;2022-07-15T06:58:17;18.50;77.70
15099;DHT22;33900;53.640;9.942;2022-07-15T07:00:43;18.50;77.70
15099;DHT22;33900;53.640;9.942;2022-07-15T07:03:09;18.60;77.80
15099;DHT22;33900;53.640;9.942;2022-07-15T07:05:34;18.60;76.70
15099;DHT22;33900;53.640;9.942;2022-07-15T07:08:02;18.50;76.00
15099;DHT22;33900;53.640;9.942;2022-07-15T07:10:27;18.50;76.20
15099;DHT22;33900;53.640;9.942;2022-07-15T07:12:56;18.60;76.80
15099;DHT22;33900;53.640;9.942;2022-07-15T07:15:22;18.60;76.70
15099;DHT22;33900;53.640;9.942;2022-07-15T07:17:50;18.60;76.70
15099;DHT22;33900;53.640;9.942;2022-07-15T07:20:16;18.60;76.00
15099;DHT22;33900;53.640;9.942;2022-07-15T07:22:42;18.60;75.50
15099;DHT22;33900;53.640;9.942;2022-07-15T07:25:07;18.60;75.70
15099;DHT22;33900;53.640;9.942;2022-07-15T07:27:33;18.70;75.20
15099;DHT22;33900;53.640;9.942;2022-07-15T07:29:59;18.70;75.10
15099;DHT22;33900;53.640;9.942;2022-07-15T07:32:27;18.70;74.60
15099;DHT22;33900;53.640;9.942;2022-07-15T07:34:52;18.70;74.90
15099;DHT22;33900;53.640;9.942;2022-07-15T07:37:18;18.70;74.90
15099;DHT22;33900;53.640;9.942;2022-07-15T07:39:44;18.80;75.00
15099;DHT22;33900;53.640;9.942;2022-07-15T07:42:10;18.80;74.50
15099;DHT22;33900;53.640;9.942;2022-07-15T07:44:35;18.80;73.00
15099;DHT22;33900;53.640;9.942;2022-07-15T07:47:02;18.80;73.50
15099;DHT22;33900;53.640;9.942;2022-07-15T07:49:28;18.80;73.90
15099;DHT22;33900;53.640;9.942;2022-07-15T07:51:53;18.90;73.50
15099;DHT22;33900;53.640;9.942;2022-07-15T07:54:25;18.90;73.10
15099;DHT22;33900;53.640;9.942;2022-07-15T07:56:51;18.90;72.10
15099;DHT22;33900;53.640;9.942;2022-07-15T07:59:16;18.90;72.80
15099;DHT22;33900;53.640;9.942;2022-07-15T08:01:42;18.90;72.70
15099;DHT22;33900;53.640;9.942;2022-07-15T08:04:07;18.80;73.00
15099;DHT22;33900;53.640;9.942;2022-07-15T08:06:33;18.80;72.90
15099;DHT22;33900;53.640;9.942;2022-07-15T08:11:52;18.80;72.50
15099;DHT22;33900;53.640;9.942;2022-07-15T08:14:20;18.70;72.10
15099;DHT22;33900;53.640;9.942;2022-07-15T08:16:46;18.70;72.00
15099;DHT22;33900;53.640;9.942;2022-07-15T08:19:12;18.60;72.50
15099;DHT22;33900;53.640;9.942;2022-07-15T08:21:41;18.60;73.00
15099;DHT22;33900;53.640;9.942;2022-07-15T08:24:06;18.60;73.40
15099;DHT22;33900;53.640;9.942;2022-07-15T08:26:32;18.60;73.60
15099;DHT22;33900;53.640;9.942;2022-07-15T08:28:57;18.60;74.00
15099;DHT22;33900;53.640;9.942;2022-07-15T08:31:23;18.60;74.40
15099;DHT22;33900;53.640;9.942;2022-07-15T08:33:49;18.60;74.90
15099;DHT22;33900;53.640;9.942;2022-07-15T08:36:14;18.70;75.30
15099;DHT22;33900;53.640;9.942;2022-07-15T08:38:40;18.70;75.20
15099;DHT22;33900;53.640;9.942;2022-07-15T08:41:06;18.90;75.50
15099;DHT22;33900;53.640;9.942;2022-07-15T08:43:31;18.90;75.10
15099;DHT22;33900;53.640;9.942;2022-07-15T08:46:10;19.00;75.00
15099;DHT22;33900;53.640;9.942;2022-07-15T08:48:48;19.20;75.40
15099;DHT22;33900;53.640;9.942;2022-07-15T08:51:18;19.30;75.90
15099;DHT22;33900;53.640;9.942;2022-07-15T08:53:45;19.40;75.40
15099;DHT22;33900;53.640;9.942;2022-07-15T08:56:16;19.50;73.60
15099;DHT22;33900;53.640;9.942;2022-07-15T08:58:51;19.50;73.40
15099;DHT22;33900;53.640;9.942;2022-07-15T09:01:17;19.60;73.50
15099;DHT22;33900;53.640;9.942;2022-07-15T09:03:43;19.60;74.30
15099;DHT22;33900;53.640;9.942;2022-07-15T09:06:09;19.60;75.40
15099;DHT22;33900;53.640;9.942;2022-07-15T09:08:54;19.50;76.00
15099;DHT22;33900;53.640;9.942;2022-07-15T09:11:26;19.50;76.70
15099;DHT22;33900;53.640;9.942;2022-07-15T09:13:52;19.40;76.80
15099;DHT22;33900;53.640;9.942;2022-07-15T09:16:18;19.40;77.10
15099;DHT22;33900;53.640;9.942;2022-07-15T09:18:49;19.40;77.00
15099;DHT22;33900;53.640;9.942;2022-07-15T09:21:19;19.40;77.20
15099;DHT22;33900;53.640;9.942;2022-07-15T09:23:45;19.40;77.20
15099;DHT22;33900;53.640;9.942;2022-07-15T09:26:21;19.50;77.10
15099;DHT22;33900;53.640;9.942;2022-07-15T09:28:47;19.60;77.40
15099;DHT22;33900;53.640;9.942;2022-07-15T09:31:14;19.60;76.50
15099;DHT22;33900;53.640;9.942;2022-07-15T09:34:09;19.60;76.00
15099;DHT22;33900;53.640;9.942;2022-07-15T09:36:36;19.70;75.30
15099;DHT22;33900;53.640;9.942;2022-07-15T09:39:05;19.70;74.70
15099;DHT22;33900;53.640;9.942;2022-07-15T09:41:32;19.80;73.50
15099;DHT22;33900;53.640;9.942;2022-07-15T09:43:59;19.80;73.80
15099;DHT22;33900;53.640;9.942;2022-07-15T09:46:26;19.80;73.90
15099;DHT22;33900;53.640;9.942;2022-07-15T09:48:53;19.90;74.10
15099;DHT22;33900;53.640;9.942;2022-07-15T09:51:20;20.00;73.60
15099;DHT22;33900;53.640;9.942;2022-07-15T09:53:52;20.00;72.20
15099;DHT22;33900;53.640;9.942;2022-07-15T09:56:19;20.10;70.70
15099;DHT22;33900;53.640;9.942;2022-07-15T09:58:47;20.10;69.80
15099;DHT22;33900;53.640;9.942;2022-07-15T10:01:13;20.10;70.30
15099;DHT22;33900;53.640;9.942;2022-07-15T10:03:39;20.20;68.80
15099;DHT22;33900;53.640;9.942;2022-07-15T10:06:05;20.20;67.90
15099;DHT22;33900;53.640;9.942;2022-07-15T10:08:32;20.20;67.20
15099;DHT22;33900;53.640;9.942;2022-07-15T10:17:19;20.10;65.70
15099;DHT22;33900;53.640;9.942;2022-07-15T10:20:07;20.10;66.30
15099;DHT22;33900;53.640;9.942;2022-07-15T10:25:23;20.30;66.80
15099;DHT22;33900;53.640;9.942;2022-07-15T10:30:20;20.40;66.20
15099;DHT22;33900;53.640;9.942;2022-07-15T10:35:34;20.40;64.70
15099;DHT22;33900;53.640;9.942;2022-07-15T10:46:26;20.50;65.30
15099;DHT22;33900;53.640;9.942;2022-07-15T10:54:37;20.70;64.30
15099;DHT22;33900;53.640;9.942;2022-07-15T10:56:56;20.70;64.00
15099;DHT22;33900;53.640;9.942;2022-07-15T10:59:24;20.70;64.20
15099;DHT22;33900;53.640;9.942;2022-07-15T11:01:50;20.70;64.60
15099;DHT22;33900;53.640;9.942;2022-07-15T11:04:35;20.70;65.10
15099;DHT22;33900;53.640;9.942;2022-07-15T11:12:12;20.90;64.30
15099;DHT22;33900;53.640;9.942;2022-07-15T11:17:20;20.90;64.90
15099;DHT22;33900;53.640;9.942;2022-07-15T11:19:47;20.90;65.40
15099;DHT22;33900;53.640;9.942;2022-07-15T11:22:13;20.90;66.00
15099;DHT22;33900;53.640;9.942;2022-07-15T11:24:38;21.00;65.10
15099;DHT22;33900;53.640;9.942;2022-07-15T11:27:04;21.00;65.40
15099;DHT22;33900;53.640;9.942;2022-07-15T11:32:31;21.10;64.70
15099;DHT22;33900;53.640;9.942;2022-07-15T11:34:57;21.10;65.30
15099;DHT22;33900;53.640;9.942;2022-07-15T11:37:24;21.20;65.50
15099;DHT22;33900;53.640;9.942;2022-07-15T11:39:50;21.20;65.00
15099;DHT22;33900;53.640;9.942;2022-07-15T11:42:30;21.20;63.70
15099;DHT22;33900;53.640;9.942;2022-07-15T11:45:29;21.20;63.10
15099;DHT22;33900;53.640;9.942;2022-07-15T11:47:55;21.20;64.00
15099;DHT22;33900;53.640;9.942;2022-07-15T11:50:21;21.30;63.40
15099;DHT22;33900;53.640;9.942;2022-07-15T11:52:46;21.30;62.70
15099;DHT22;33900;53.640;9.942;2022-07-15T11:55:13;21.40;62.80
15099;DHT22;33900;53.640;9.942;2022-07-15T11:57:43;21.50;62.90
15099;DHT22;33900;53.640;9.942;2022-07-15T12:00:09;21.60;62.00
15099;DHT22;33900;53.640;9.942;2022-07-15T12:02:37;21.60;60.70
15099;DHT22;33900;53.640;9.942;2022-07-15T12:05:03;21.70;61.70
15099;DHT22;33900;53.640;9.942;2022-07-15T12:07:39;21.70;62.20
15099;DHT22;33900;53.640;9.942;2022-07-15T12:10:05;21.90;62.30
15099;DHT22;33900;53.640;9.942;2022-07-15T12:12:31;22.00;62.00
15099;DHT22;33900;53.640;9.942;2022-07-15T12:14:56;22.20;63.00
15099;DHT22;33900;53.640;9.942;2022-07-15T12:17:22;22.40;63.00
15099;DHT22;33900;53.640;9.942;2022-07-15T12:19:51;22.60;61.80
15099;DHT22;33900;53.640;9.942;2022-07-15T12:22:19;22.70;60.50
15099;DHT22;33900;53.640;9.942;2022-07-15T12:24:48;22.90;58.90
15099;DHT22;33900;53.640;9.942;2022-07-15T12:27:17;23.00;58.70
15099;DHT22;33900;53.640;9.942;2022-07-15T12:29:42;22.90;57.70
15099;DHT22;33900;53.640;9.942;2022-07-15T12:32:09;22.90;58.30
15099;DHT22;33900;53.640;9.942;2022-07-15T12:34:49;22.90;58.70
15099;DHT22;33900;53.640;9.942;2022-07-15T12:37:16;22.90;58.90
15099;DHT22;33900;53.640;9.942;2022-07-15T12:40:20;22.80;58.80
15099;DHT22;33900;53.640;9.942;2022-07-15T12:42:50;22.70;58.70
15099;DHT22;33900;53.640;9.942;2022-07-15T12:45:16;22.60;58.60
15099;DHT22;33900;53.640;9.942;2022-07-15T12:50:28;22.60;59.70
15099;DHT22;33900;53.640;9.942;2022-07-15T12:52:54;22.60;58.40
15099;DHT22;33900;53.640;9.942;2022-07-15T12:55:21;22.60;59.00
15099;DHT22;33900;53.640;9.942;2022-07-15T12:57:47;22.60;58.50
15099;DHT22;33900;53.640;9.942;2022-07-15T13:05:43;22.70;57.60
15099;DHT22;33900;53.640;9.942;2022-07-15T13:08:13;22.70;57.30
15099;DHT22;33900;53.640;9.942;2022-07-15T13:10:40;22.70;58.10
15099;DHT22;33900;53.640;9.942;2022-07-15T13:13:06;22.80;58.30
15099;DHT22;33900;53.640;9.942;2022-07-15T13:15:32;22.90;58.40
15099;DHT22;33900;53.640;9.942;2022-07-15T13:17:57;23.00;59.00
15099;DHT22;33900;53.640;9.942;2022-07-15T13:20:23;23.10;58.10
15099;DHT22;33900;53.640;9.942;2022-07-15T13:22:49;23.10;58.00
15099;DHT22;33900;53.640;9.942;2022-07-15T13:25:16;23.20;57.30
15099;DHT22;33900;53.640;9.942;2022-07-15T13:27:43;23.30;56.40
15099;DHT22;33900;53.640;9.942;2022-07-15T13:30:08;23.30;56.10
15099;DHT22;33900;53.640;9.942;2022-07-15T13:32:34;23.40;54.90
15099;DHT22;33900;53.640;9.942;2022-07-15T13:35:00;23.40;55.60
15099;DHT22;33900;53.640;9.942;2022-07-15T13:37:25;23.50;56.00
15099;DHT22;33900;53.640;9.942;2022-07-15T13:39:51;23.60;55.60
15099;DHT22;33900;53.640;9.942;2022-07-15T13:42:17;23.70;55.00
15099;DHT22;33900;53.640;9.942;2022-07-15T13:44:43;23.80;55.50
15099;DHT22;33900;53.640;9.942;2022-07-15T13:47:08;23.80;55.00
15099;DHT22;33900;53.640;9.942;2022-07-15T13:49:34;23.90;55.10
15099;DHT22;33900;53.640;9.942;2022-07-15T13:52:23;24.00;54.90
15099;DHT22;33900;53.640;9.942;2022-07-15T13:54:48;24.00;53.80
15099;DHT22;33900;53.640;9.942;2022-07-15T13:57:14;24.10;53.80
15099;DHT22;33900;53.640;9.942;2022-07-15T13:59:39;24.10;53.20
15099;DHT22;33900;53.640;9.942;2022-07-15T14:02:06;24.20;53.90
15099;DHT22;33900;53.640;9.942;2022-07-15T14:04:34;24.20;53.40
15099;DHT22;33900;53.640;9.942;2022-07-15T14:06:59;24.20;52.60
15099;DHT22;33900;53.640;9.942;2022-07-15T14:09:25;24.20;53.30
15099;DHT22;33900;53.640;9.942;2022-07-15T14:11:51;24.20;53.20
15099;DHT22;33900;53.640;9.942;2022-07-15T14:14:16;24.20;52.30
15099;DHT22;33900;53.640;9.942;2022-07-15T14:16:42;24.30;52.80
15099;DHT22;33900;53.640;9.942;2022-07-15T14:19:07;24.30;51.50
15099;DHT22;33900;53.640;9.942;2022-07-15T14:21:33;24.30;51.00
15099;DHT22;33900;53.640;9.942;2022-07-15T14:23:58;24.20;50.90
15099;DHT22;33900;53.640;9.942;2022-07-15T14:26:24;24.20;51.30
15099;DHT22;33900;53.640;9.942;2022-07-15T14:28:50;24.20;51.70
15099;DHT22;33900;53.640;9.942;2022-07-15T14:31:15;24.10;50.90
15099;DHT22;33900;53.640;9.942;2022-07-15T14:33:42;24.00;51.00
15099;DHT22;33900;53.640;9.942;2022-07-15T14:36:08;23.80;50.70
15099;DHT22;33900;53.640;9.942;2022-07-15T14:38:35;23.80;51.80
15099;DHT22;33900;53.640;9.942;2022-07-15T14:41:01;23.70;52.20
15099;DHT22;33900;53.640;9.942;2022-07-15T14:43:26;23.80;52.70
15099;DHT22;33900;53.640;9.942;2022-07-15T14:45:52;23.80;53.30
15099;DHT22;33900;53.640;9.942;2022-07-15T14:48:18;23.90;51.40
15099;DHT22;33900;53.640;9.942;2022-07-15T14:50:44;23.90;51.90
15099;DHT22;33900;53.640;9.942;2022-07-15T14:53:09;23.90;52.30
15099;DHT22;33900;53.640;9.942;2022-07-15T14:55:36;23.90;53.00
15099;DHT22;33900;53.640;9.942;2022-07-15T14:58:02;23.90;51.40
15099;DHT22;33900;53.640;9.942;2022-07-15T15:00:28;23.80;51.70
15099;DHT22;33900;53.640;9.942;2022-07-15T15:02:54;23.80;51.40
15099;DHT22;33900;53.640;9.942;2022-07-15T15:05:19;23.80;51.60
15099;DHT22;33900;53.640;9.942;2022-07-15T15:07:45;23.80;50.00
15099;DHT22;33900;53.640;9.942;2022-07-15T15:10:11;23.90;50.20
15099;DHT22;33900;53.640;9.942;2022-07-15T15:12:36;23.90;49.70
15099;DHT22;33900;53.640;9.942;2022-07-15T15:15:02;23.80;49.60
15099;DHT22;33900;53.640;9.942;2022-07-15T15:17:28;23.80;49.50
15099;DHT22;33900;53.640;9.942;2022-07-15T15:19:53;23.80;49.60
15099;DHT22;33900;53.640;9.942;2022-07-15T15:22:19;23.80;49.40
15099;DHT22;33900;53.640;9.942;2022-07-15T15:24:44;23.80;50.10
15099;DHT22;33900;53.640;9.942;2022-07-15T15:27:10;23.80;50.50
15099;DHT22;33900;53.640;9.942;2022-07-15T15:29:36;23.80;50.00
15099;DHT22;33900;53.640;9.942;2022-07-15T15:32:02;23.80;49.90
15099;DHT22;33900;53.640;9.942;2022-07-15T15:34:28;23.80;49.90
15099;DHT22;33900;53.640;9.942;2022-07-15T15:36:55;23.70;50.40
15099;DHT22;33900;53.640;9.942;2022-07-15T15:39:21;23.70;51.20
15099;DHT22;33900;53.640;9.942;2022-07-15T15:41:47;23.60;49.20
15099;DHT22;33900;53.640;9.942;2022-07-15T15:44:12;23.50;50.10
15099;DHT22;33900;53.640;9.942;2022-07-15T15:46:38;23.50;50.30
15099;DHT22;33900;53.640;9.942;2022-07-15T15:49:04;23.40;50.40
15099;DHT22;33900;53.640;9.942;2022-07-15T15:51:29;23.40;51.20
15099;DHT22;33900;53.640;9.942;2022-07-15T15:53:55;23.50;51.90
15099;DHT22;33900;53.640;9.942;2022-07-15T15:56:21;23.50;51.50
15099;DHT22;33900;53.640;9.942;2022-07-15T15:58:46;23.50;51.60
15099;DHT22;33900;53.640;9.942;2022-07-15T16:01:12;23.50;51.80
15099;DHT22;33900;53.640;9.942;2022-07-15T16:03:38;23.50;51.50
15099;DHT22;33900;53.640;9.942;2022-07-15T16:06:03;23.40;51.50
15099;DHT22;33900;53.640;9.942;2022-07-15T16:08:30;23.50;52.20
15099;DHT22;33900;53.640;9.942;2022-07-15T16:10:55;23.40;51.30
15099;DHT22;33900;53.640;9.942;2022-07-15T16:13:21;23.30;51.00
15099;DHT22;33900;53.640;9.942;2022-07-15T16:15:46;23.30;51.10
15099;DHT22;33900;53.640;9.942;2022-07-15T16:18:12;23.20;51.70
15099;DHT22;33900;53.640;9.942;2022-07-15T16:20:37;23.10;52.00
15099;DHT22;33900;53.640;9.942;2022-07-15T16:23:03;23.10;52.10